createdAt,value
2018-09-29T00:00:08.281Z,53.85
2018-09-29T00:02:34.262Z,53.96
2018-09-29T00:05:00.211Z,54.13
2018-09-29T00:07:26.163Z,53.80
2018-09-29T00:09:52.117Z,53.88
2018-09-29T00:12:18.092Z,53.50
2018-09-29T00:14:44.112Z,53.31
2018-09-29T00:17:10.051Z,53.66
2018-09-29T00:19:36.040Z,54.14
2018-09-29T00:22:02.312Z,53.51
2018-09-29T00:24:28.281Z,53.67
2018-09-29T00:26:54.228Z,53.14
2018-09-29T00:29:20.218Z,54.13
2018-09-29T00:31:46.200Z,53.59
2018-09-29T00:34:12.184Z,53.10
2018-09-29T00:36:38.131Z,53.72
2018-09-29T00:39:04.083Z,53.57
2018-09-29T00:41:30.037Z,54.16
2018-09-29T00:43:56.004Z,53.74
2018-09-29T00:46:22.175Z,53.78
2018-09-29T00:48:48.136Z,53.86
2018-09-29T00:51:14.077Z,53.38
2018-09-29T00:53:40.080Z,53.47
2018-09-29T00:56:06.058Z,54.05
2018-09-29T00:58:32.007Z,53.08
2018-09-29T01:00:58.259Z,53.66
2018-09-29T01:03:24.240Z,53.28
2018-09-29T01:05:50.187Z,53.42
2018-09-29T01:08:16.127Z,53.14
2018-09-29T01:10:42.075Z,53.22
2018-09-29T01:13:08.015Z,53.65
2018-09-29T01:15:33.944Z,53.76
2018-09-29T01:18:00.041Z,53.69
2018-09-29T01:20:26.011Z,54.02
2018-09-29T01:22:51.964Z,53.01
2018-09-29T01:25:17.936Z,53.50
2018-09-29T01:27:43.883Z,53.76
2018-09-29T01:30:09.855Z,52.97
2018-09-29T01:32:35.845Z,53.65
2018-09-29T01:35:01.789Z,53.84
2018-09-29T01:37:27.744Z,53.82
2018-09-29T01:39:53.696Z,53.60
2018-09-29T01:42:19.659Z,53.16
2018-09-29T01:44:45.612Z,53.38
2018-09-29T01:47:11.563Z,53.49
2018-09-29T01:49:37.509Z,53.73
2018-09-29T01:52:03.466Z,53.19
2018-09-29T01:54:29.427Z,53.16
2018-09-29T01:56:55.375Z,52.97
2018-09-29T01:59:21.332Z,52.87
2018-09-29T02:01:47.344Z,53.14
2018-09-29T02:04:13.247Z,53.56
2018-09-29T02:06:39.196Z,53.05
2018-09-29T02:09:05.150Z,52.90
2018-09-29T02:11:31.109Z,53.53
2018-09-29T02:13:57.061Z,53.19
2018-09-29T02:16:23.007Z,52.99
2018-09-29T02:18:48.956Z,53.37
2018-09-29T02:21:14.900Z,53.16
2018-09-29T02:23:40.864Z,52.93
2018-09-29T02:26:06.850Z,52.63
2018-09-29T02:28:32.759Z,52.73
2018-09-29T02:30:58.705Z,53.24
2018-09-29T02:33:25.591Z,53.45
2018-09-29T02:35:51.535Z,53.32
2018-09-29T02:38:17.483Z,52.84
2018-09-29T02:40:43.499Z,52.52
2018-09-29T02:43:09.455Z,53.23
2018-09-29T02:45:35.460Z,52.72
2018-09-29T02:48:01.417Z,53.34
2018-09-29T02:50:27.360Z,53.22
2018-09-29T02:52:53.331Z,52.88
2018-09-29T02:55:19.262Z,52.73
2018-09-29T02:57:45.242Z,52.15
2018-09-29T03:00:11.189Z,52.68
2018-09-29T03:02:37.159Z,53.15
2018-09-29T03:05:03.100Z,52.96
2018-09-29T03:07:29.080Z,53.11
2018-09-29T03:09:55.024Z,52.12
2018-09-29T03:12:20.975Z,52.22
2018-09-29T03:14:46.936Z,52.38
2018-09-29T03:17:12.893Z,52.35
2018-09-29T03:19:38.832Z,52.64
2018-09-29T03:22:04.778Z,52.69
2018-09-29T03:24:30.828Z,52.85
2018-09-29T03:26:56.767Z,53.02
2018-09-29T03:29:22.726Z,52.40
2018-09-29T03:31:48.736Z,52.81
2018-09-29T03:34:14.641Z,52.98
2018-09-29T03:36:40.615Z,52.23
2018-09-29T03:39:06.664Z,52.11
2018-09-29T03:41:32.608Z,52.09
2018-09-29T03:43:58.565Z,52.21
2018-09-29T03:46:24.525Z,52.64
2018-09-29T03:48:50.471Z,52.24
2018-09-29T03:51:16.540Z,51.68
2018-09-29T03:53:42.568Z,52.88
2018-09-29T03:56:08.470Z,52.44
2018-09-29T03:58:34.427Z,52.82
2018-09-29T04:01:00.373Z,52.93
2018-09-29T04:03:26.336Z,52.57
2018-09-29T04:05:52.281Z,51.72
2018-09-29T04:08:18.226Z,52.63
2018-09-29T04:10:44.177Z,51.73
2018-09-29T04:13:10.116Z,51.73
2018-09-29T04:15:36.173Z,52.49
2018-09-29T04:18:02.118Z,52.35
2018-09-29T04:20:28.067Z,52.53
2018-09-29T04:22:54.153Z,51.53
2018-09-29T04:25:20.112Z,51.84
2018-09-29T04:27:46.060Z,52.68
2018-09-29T04:30:12.027Z,51.71
2018-09-29T04:32:37.980Z,51.69
2018-09-29T04:35:03.952Z,52.09
2018-09-29T04:37:30.071Z,52.15
2018-09-29T04:39:56.091Z,51.71
2018-09-29T04:42:22.055Z,52.56
2018-09-29T04:44:48.003Z,52.37
2018-09-29T04:47:13.968Z,51.91
2018-09-29T04:49:39.911Z,52.32
2018-09-29T04:52:05.868Z,51.96
2018-09-29T04:54:31.811Z,52.24
2018-09-29T04:56:57.814Z,51.65
2018-09-29T04:59:23.756Z,52.68
2018-09-29T05:01:49.695Z,51.80
2018-09-29T05:04:15.641Z,51.72
2018-09-29T05:06:41.716Z,52.26
2018-09-29T05:09:07.680Z,51.52
2018-09-29T05:11:33.630Z,52.03
2018-09-29T05:13:59.696Z,51.70
2018-09-29T05:16:25.576Z,51.41
2018-09-29T05:18:51.519Z,52.02
2018-09-29T05:21:17.461Z,52.00
2018-09-29T05:23:43.408Z,51.59
2018-09-29T05:26:09.351Z,52.09
2018-09-29T05:28:35.303Z,51.52
2018-09-29T05:31:01.266Z,51.55
2018-09-29T05:33:27.441Z,51.92
2018-09-29T05:35:53.387Z,51.47
2018-09-29T05:38:19.358Z,51.85
2018-09-29T05:40:45.309Z,52.01
2018-09-29T05:43:11.319Z,51.38
2018-09-29T05:45:37.280Z,51.51
2018-09-29T05:48:03.237Z,52.56
2018-09-29T05:50:29.226Z,51.86
2018-09-29T05:52:55.176Z,51.59
2018-09-29T05:55:21.120Z,51.73
2018-09-29T05:57:47.062Z,51.62
2018-09-29T06:02:45.371Z,52.23
2018-09-29T06:05:11.314Z,51.77
2018-09-29T06:07:37.278Z,51.37
2018-09-29T06:10:03.239Z,51.91
2018-09-29T06:12:29.183Z,51.33
2018-09-29T06:14:55.295Z,51.97
2018-09-29T06:17:21.355Z,52.45
2018-09-29T06:19:47.296Z,51.85
2018-09-29T06:22:13.255Z,51.59
2018-09-29T06:24:39.233Z,51.68
2018-09-29T06:27:05.203Z,51.81
2018-09-29T06:29:31.144Z,52.43
2018-09-29T06:31:57.098Z,51.92
2018-09-29T06:34:23.154Z,52.23
2018-09-29T06:36:49.020Z,51.62
2018-09-29T06:39:15.055Z,51.49
2018-09-29T06:41:41.001Z,51.96
2018-09-29T06:44:06.960Z,52.09
2018-09-29T06:46:32.911Z,52.47
2018-09-29T06:48:58.878Z,52.25
2018-09-29T06:51:24.826Z,51.92
2018-09-29T06:53:50.824Z,52.61
2018-09-29T06:56:16.766Z,52.47
2018-09-29T06:58:42.832Z,52.44
2018-09-29T07:01:08.792Z,53.19
2018-09-29T07:03:34.756Z,52.84
2018-09-29T07:06:00.719Z,52.75
2018-09-29T07:08:26.680Z,53.72
2018-09-29T07:10:52.624Z,53.74
2018-09-29T07:13:18.588Z,52.92
2018-09-29T07:18:16.410Z,51.84
2018-09-29T07:20:42.364Z,50.33
2018-09-29T07:23:08.328Z,49.82
2018-09-29T07:25:34.401Z,51.03
2018-09-29T07:28:00.262Z,52.14
2018-09-29T07:30:26.208Z,52.57
2018-09-29T07:32:52.258Z,52.01
2018-09-29T07:35:18.219Z,53.28
2018-09-29T07:37:44.168Z,52.72
2018-09-29T07:40:10.120Z,52.63
2018-09-29T07:42:36.072Z,53.03
2018-09-29T07:45:02.023Z,53.05
2018-09-29T07:47:27.963Z,54.08
2018-09-29T07:49:53.927Z,52.91
2018-09-29T07:52:19.899Z,53.07
2018-09-29T07:54:45.875Z,53.00
2018-09-29T07:57:11.847Z,53.49
2018-09-29T07:59:37.793Z,53.75
2018-09-29T08:02:03.773Z,53.36
2018-09-29T08:04:29.728Z,53.14
2018-09-29T08:06:55.684Z,52.77
2018-09-29T08:09:21.648Z,53.86
2018-09-29T08:11:47.609Z,53.11
2018-09-29T08:14:13.559Z,53.38
2018-09-29T08:16:39.527Z,53.33
2018-09-29T08:19:05.490Z,53.24
2018-09-29T08:21:31.437Z,53.26
2018-09-29T08:23:57.400Z,53.29
2018-09-29T08:26:23.469Z,53.24
2018-09-29T08:28:49.445Z,53.86
2018-09-29T08:31:15.395Z,53.00
2018-09-29T08:33:41.380Z,53.46
2018-09-29T08:36:07.346Z,53.46
2018-09-29T08:38:33.288Z,52.98
2018-09-29T08:40:59.240Z,53.04
2018-09-29T08:43:25.192Z,53.44
2018-09-29T08:45:51.144Z,52.77
2018-09-29T08:48:17.355Z,53.15
2018-09-29T08:50:43.334Z,53.67
2018-09-29T08:53:09.355Z,53.63
2018-09-29T08:55:35.282Z,52.96
2018-09-29T08:58:01.228Z,53.37
2018-09-29T09:00:27.183Z,52.94
2018-09-29T09:02:53.256Z,53.88
2018-09-29T09:05:19.225Z,52.87
2018-09-29T09:07:45.176Z,53.41
2018-09-29T09:10:11.144Z,53.80
2018-09-29T09:12:37.085Z,53.60
2018-09-29T09:15:03.066Z,52.85
2018-09-29T09:17:29.120Z,53.17
2018-09-29T09:19:55.104Z,53.00
2018-09-29T09:22:21.043Z,53.10
2018-09-29T09:24:47.061Z,52.84
2018-09-29T09:27:13.016Z,52.83
2018-09-29T09:29:38.968Z,54.00
2018-09-29T09:32:04.939Z,52.91
2018-09-29T09:34:30.904Z,53.23
2018-09-29T09:36:56.878Z,53.67
2018-09-29T09:39:22.851Z,52.92
2018-09-29T09:41:48.876Z,53.69
2018-09-29T09:44:14.852Z,53.22
2018-09-29T09:46:40.825Z,53.58
2018-09-29T09:49:07.048Z,53.42
2018-09-29T09:51:33.017Z,53.11
2018-09-29T09:53:58.961Z,52.71
2018-09-29T09:56:24.935Z,52.99
2018-09-29T09:58:50.979Z,53.35
2018-09-29T10:01:16.946Z,53.55
2018-09-29T10:03:42.891Z,52.78
2018-09-29T10:06:08.848Z,53.66
2018-09-29T10:08:34.796Z,53.20
2018-09-29T10:11:00.761Z,52.67
2018-09-29T10:13:26.995Z,53.73
2018-09-29T10:15:53.236Z,53.56
2018-09-29T10:18:19.208Z,53.00
2018-09-29T10:20:45.144Z,53.21
2018-09-29T10:23:11.121Z,53.51
2018-09-29T10:25:37.063Z,52.67
2018-09-29T10:28:03.039Z,52.56
2018-09-29T10:30:29.223Z,53.72
2018-09-29T10:32:55.181Z,53.50
2018-09-29T10:35:21.135Z,53.59
2018-09-29T10:37:47.091Z,53.17
2018-09-29T10:40:13.037Z,53.06
2018-09-29T10:42:38.982Z,52.71
2018-09-29T10:45:05.066Z,52.70
2018-09-29T10:47:31.027Z,53.63
2018-09-29T10:49:56.988Z,53.08
2018-09-29T10:52:22.969Z,52.57
2018-09-29T10:54:48.936Z,53.69
2018-09-29T10:57:14.889Z,52.95
2018-09-29T10:59:40.832Z,51.38
2018-09-29T11:02:06.882Z,50.49
2018-09-29T11:04:32.815Z,49.34
2018-09-29T11:06:58.773Z,48.96
2018-09-29T11:09:25.088Z,48.74
2018-09-29T11:11:51.072Z,48.87
2018-09-29T11:14:17.125Z,48.09
2018-09-29T11:16:43.023Z,47.71
2018-09-29T11:19:09.120Z,47.07
2018-09-29T11:21:35.260Z,46.26
2018-09-29T11:24:01.349Z,47.73
2018-09-29T11:26:27.292Z,47.07
2018-09-29T11:28:53.271Z,46.60
2018-09-29T11:31:19.369Z,46.63
2018-09-29T11:33:45.360Z,46.69
2018-09-29T11:36:11.376Z,47.08
2018-09-29T11:38:37.397Z,46.30
2018-09-29T11:41:03.428Z,45.40
2018-09-29T11:43:29.383Z,46.09
2018-09-29T11:45:55.415Z,45.09
2018-09-29T11:48:21.427Z,44.94
2018-09-29T11:50:47.386Z,44.56
2018-09-29T11:53:13.340Z,46.00
2018-09-29T11:55:39.285Z,45.33
2018-09-29T11:58:05.235Z,45.20
2018-09-29T12:00:31.480Z,45.44
2018-09-29T12:02:57.440Z,45.87
2018-09-29T12:05:23.396Z,47.55
2018-09-29T12:07:49.398Z,47.85
2018-09-29T12:10:15.339Z,48.53
2018-09-29T12:12:41.323Z,48.95
2018-09-29T12:15:07.273Z,48.45
2018-09-29T12:17:33.244Z,48.70
2018-09-29T12:19:59.230Z,49.30
2018-09-29T12:22:25.263Z,48.77
2018-09-29T12:24:51.167Z,49.37
2018-09-29T12:27:17.117Z,50.00
2018-09-29T12:29:43.136Z,49.08
2018-09-29T12:32:09.265Z,49.69
2018-09-29T12:34:35.219Z,49.68
2018-09-29T12:37:01.232Z,49.62
2018-09-29T12:39:27.135Z,49.90
2018-09-29T12:41:53.296Z,49.30
2018-09-29T12:44:19.286Z,50.35
2018-09-29T12:46:45.240Z,49.65
2018-09-29T12:49:11.192Z,50.49
2018-09-29T12:51:37.257Z,50.63
2018-09-29T12:54:03.187Z,50.83
2018-09-29T12:56:29.228Z,51.08
2018-09-29T12:58:55.206Z,51.06
2018-09-29T13:01:21.131Z,50.63
2018-09-29T13:03:47.106Z,51.14
2018-09-29T13:06:13.061Z,50.75
2018-09-29T13:08:39.012Z,50.40
2018-09-29T13:11:05.002Z,50.20
2018-09-29T13:13:30.933Z,50.40
2018-09-29T13:15:56.883Z,50.99
2018-09-29T13:18:22.840Z,50.75
2018-09-29T13:20:48.783Z,51.03
2018-09-29T13:23:14.735Z,50.90
2018-09-29T13:25:40.705Z,51.32
2018-09-29T13:28:06.655Z,50.58
2018-09-29T13:30:32.599Z,50.75
2018-09-29T13:32:58.539Z,51.18
2018-09-29T13:35:24.567Z,51.04
2018-09-29T13:37:50.517Z,50.95
2018-09-29T13:40:16.462Z,50.91
2018-09-29T13:42:42.408Z,51.36
2018-09-29T13:45:08.368Z,51.29
2018-09-29T13:47:34.320Z,51.28
2018-09-29T13:50:00.271Z,51.33
2018-09-29T13:52:26.224Z,50.67
2018-09-29T13:54:52.157Z,51.72
2018-09-29T13:57:18.139Z,51.17
2018-09-29T13:59:44.095Z,51.71
2018-09-29T14:02:10.106Z,51.42
2018-09-29T14:04:36.067Z,50.56
2018-09-29T14:07:02.031Z,50.90
2018-09-29T14:09:28.072Z,51.42
2018-09-29T14:11:54.020Z,51.72
2018-09-29T14:14:19.972Z,51.77
2018-09-29T14:16:48.676Z,51.45
2018-09-29T14:19:14.714Z,51.79
2018-09-29T14:21:40.840Z,51.43
2018-09-29T14:24:06.919Z,51.29
2018-09-29T14:26:32.895Z,50.50
2018-09-29T14:28:58.869Z,50.67
2018-09-29T14:31:24.811Z,50.82
2018-09-29T14:33:50.791Z,48.23
2018-09-29T14:36:16.740Z,50.32
2018-09-29T14:38:42.737Z,49.81
2018-09-29T14:41:08.776Z,48.00
2018-09-29T14:43:34.812Z,47.93
2018-09-29T14:46:00.816Z,48.26
2018-09-29T14:48:26.851Z,47.68
2018-09-29T14:50:52.880Z,46.88
2018-09-29T14:53:18.824Z,46.15
2018-09-29T14:55:44.787Z,45.14
2018-09-29T14:58:10.739Z,46.00
2018-09-29T15:00:36.720Z,46.25
2018-09-29T15:03:02.671Z,44.69
2018-09-29T15:05:28.645Z,45.16
2018-09-29T15:07:54.618Z,44.86
2018-09-29T15:10:20.679Z,45.83
2018-09-29T15:12:46.535Z,46.52
2018-09-29T15:15:12.493Z,45.32
2018-09-29T15:17:38.485Z,45.12
2018-09-29T15:20:04.450Z,43.83
2018-09-29T15:22:30.411Z,44.30
2018-09-29T15:24:56.361Z,45.46
2018-09-29T15:27:22.314Z,45.55
2018-09-29T15:29:48.255Z,43.70
2018-09-29T15:32:14.230Z,44.59
2018-09-29T15:34:40.270Z,43.70
2018-09-29T15:37:06.265Z,45.09
2018-09-29T15:39:32.208Z,45.82
2018-09-29T15:41:58.151Z,46.49
2018-09-29T15:44:24.136Z,47.24
2018-09-29T15:46:50.120Z,47.77
2018-09-29T15:49:16.103Z,48.05
2018-09-29T15:51:42.059Z,48.14
2018-09-29T15:54:08.097Z,48.94
2018-09-29T15:56:34.055Z,49.13
2018-09-29T15:59:00.025Z,49.00
2018-09-29T16:01:26.098Z,49.95
2018-09-29T16:03:52.167Z,49.14
2018-09-29T16:06:18.144Z,50.04
2018-09-29T16:08:44.063Z,50.14
2018-09-29T16:11:10.068Z,50.14
2018-09-29T16:13:36.011Z,50.33
2018-09-29T16:16:01.973Z,50.07
2018-09-29T16:18:27.910Z,49.96
2018-09-29T16:20:53.910Z,50.43
2018-09-29T16:23:20.469Z,50.30
2018-09-29T16:25:46.469Z,50.35
2018-09-29T16:28:12.660Z,50.03
2018-09-29T16:30:38.637Z,50.66
2018-09-29T16:33:04.612Z,50.29
2018-09-29T16:35:30.581Z,51.03
2018-09-29T16:37:56.636Z,51.00
2018-09-29T16:40:22.662Z,49.80
2018-09-29T16:42:48.656Z,51.29
2018-09-29T16:45:14.732Z,51.22
2018-09-29T16:47:40.699Z,50.81
2018-09-29T16:50:06.691Z,50.39
2018-09-29T16:52:32.696Z,51.26
2018-09-29T16:54:58.652Z,51.23
2018-09-29T16:57:24.629Z,50.38
2018-09-29T16:59:50.606Z,50.47
2018-09-29T17:02:16.519Z,50.64
2018-09-29T17:04:42.649Z,50.52
2018-09-29T17:07:08.442Z,50.89
2018-09-29T17:09:34.388Z,50.46
2018-09-29T17:12:00.354Z,50.71
2018-09-29T17:14:26.331Z,50.65
2018-09-29T17:16:52.296Z,51.20
2018-09-29T17:19:18.261Z,50.66
2018-09-29T17:21:44.389Z,51.25
2018-09-29T17:24:10.188Z,51.44
2018-09-29T17:26:36.167Z,51.35
2018-09-29T17:29:02.134Z,51.69
2018-09-29T17:31:28.162Z,51.77
2018-09-29T17:33:54.144Z,51.29
2018-09-29T17:36:20.099Z,50.95
2018-09-29T17:38:46.128Z,51.25
2018-09-29T17:41:12.140Z,51.31
2018-09-29T17:43:38.185Z,51.48
2018-09-29T17:46:04.147Z,51.56
2018-09-29T17:48:30.123Z,51.41
2018-09-29T17:50:56.075Z,51.81
2018-09-29T17:53:22.038Z,51.53
2018-09-29T17:55:47.992Z,51.86
2018-09-29T17:58:13.968Z,51.59
2018-09-29T18:00:39.953Z,50.95
2018-09-29T18:03:05.932Z,51.08
2018-09-29T18:05:31.892Z,51.86
2018-09-29T18:07:57.983Z,52.47
2018-09-29T18:10:23.915Z,51.40
2018-09-29T18:12:49.893Z,51.94
2018-09-29T18:15:16.122Z,51.36
2018-09-29T18:17:42.083Z,51.87
2018-09-29T18:20:08.052Z,51.58
2018-09-29T18:22:34.036Z,52.06
2018-09-29T18:25:00.001Z,51.32
2018-09-29T18:27:25.954Z,52.15
2018-09-29T18:29:51.932Z,52.26
2018-09-29T18:32:17.879Z,51.66
2018-09-29T18:34:43.856Z,51.96
2018-09-29T18:37:09.839Z,51.92
2018-09-29T18:39:35.901Z,51.31
2018-09-29T18:42:01.867Z,51.53
2018-09-29T18:44:27.868Z,51.79
2018-09-29T18:46:54.100Z,52.23
2018-09-29T18:49:20.060Z,51.94
2018-09-29T18:51:46.116Z,51.05
2018-09-29T18:54:12.056Z,51.77
2018-09-29T18:56:38.018Z,51.81
2018-09-29T18:59:04.020Z,51.14
2018-09-29T19:01:29.960Z,52.08
2018-09-29T19:03:55.939Z,51.82
2018-09-29T19:06:21.851Z,51.78
2018-09-29T19:08:47.908Z,51.91
2018-09-29T19:11:13.873Z,52.26
2018-09-29T19:13:39.951Z,51.83
2018-09-29T19:16:05.904Z,51.81
2018-09-29T19:18:31.916Z,51.70
2018-09-29T19:20:57.870Z,51.61
2018-09-29T19:23:23.842Z,51.99
2018-09-29T19:25:49.809Z,51.67
2018-09-29T19:28:15.758Z,52.09
2018-09-29T19:30:41.773Z,52.47
2018-09-29T19:33:07.731Z,51.91
2018-09-29T19:35:33.702Z,52.38
2018-09-29T19:37:59.660Z,52.16
2018-09-29T19:40:25.820Z,51.78
2018-09-29T19:42:51.823Z,52.27
2018-09-29T19:45:17.860Z,51.74
2018-09-29T19:47:43.806Z,52.13
2018-09-29T19:50:09.816Z,52.09
2018-09-29T19:52:35.948Z,52.16
2018-09-29T19:55:01.953Z,51.41
2018-09-29T19:57:27.925Z,52.23
2018-09-29T19:59:53.860Z,52.51
2018-09-29T20:02:19.907Z,51.78
2018-09-29T20:04:45.901Z,52.14
2018-09-29T20:07:11.847Z,51.81
2018-09-29T20:09:37.908Z,52.13
2018-09-29T20:12:03.934Z,51.56
2018-09-29T20:14:30.005Z,52.11
2018-09-29T20:16:56.272Z,52.21
2018-09-29T20:19:22.319Z,52.21
2018-09-29T20:21:48.326Z,51.40
2018-09-29T20:24:14.423Z,51.25
2018-09-29T20:26:40.446Z,51.74
2018-09-29T20:29:06.517Z,51.44
2018-09-29T20:31:32.494Z,50.16
2018-09-29T20:33:58.478Z,49.97
2018-09-29T20:36:24.488Z,50.34
2018-09-29T20:38:50.467Z,49.35
2018-09-29T20:41:16.464Z,50.04
2018-09-29T20:43:42.439Z,50.90
2018-09-29T20:46:08.393Z,50.43
2018-09-29T20:48:34.355Z,51.72
2018-09-29T20:51:00.560Z,51.26
2018-09-29T20:53:26.542Z,51.73
2018-09-29T20:55:52.533Z,51.11
2018-09-29T20:58:18.468Z,51.94
2018-09-29T21:00:44.487Z,51.46
2018-09-29T21:03:10.445Z,51.50
2018-09-29T21:05:36.391Z,51.46
2018-09-29T21:08:02.362Z,51.43
2018-09-29T21:10:28.316Z,51.72
2018-09-29T21:12:54.388Z,52.17
2018-09-29T21:15:20.260Z,51.72
2018-09-29T21:17:46.212Z,51.77
2018-09-29T21:20:12.981Z,51.76
2018-09-29T21:22:38.956Z,52.41
2018-09-29T21:25:04.926Z,52.05
2018-09-29T21:27:30.881Z,51.85
2018-09-29T21:29:56.853Z,52.18
2018-09-29T21:32:22.816Z,52.39
2018-09-29T21:34:48.773Z,52.00
2018-09-29T21:37:14.712Z,51.40
2018-09-29T21:39:40.673Z,51.59
2018-09-29T21:42:06.682Z,52.05
2018-09-29T21:44:32.657Z,51.78
2018-09-29T21:46:58.614Z,51.93
2018-09-29T21:49:24.567Z,52.19
2018-09-29T21:51:50.523Z,52.58
2018-09-29T21:54:16.507Z,51.50
2018-09-29T21:56:42.452Z,52.25
2018-09-29T21:59:08.419Z,52.07
2018-09-29T22:01:34.363Z,51.93
2018-09-29T22:04:00.342Z,52.19
2018-09-29T22:06:26.311Z,52.09
2018-09-29T22:08:52.311Z,52.23
2018-09-29T22:11:18.284Z,52.24
2018-09-29T22:13:44.228Z,52.15
2018-09-29T22:16:10.209Z,51.96
2018-09-29T22:18:36.176Z,52.15
2018-09-29T22:21:02.173Z,52.45
2018-09-29T22:23:28.140Z,51.63
2018-09-29T22:25:54.202Z,51.85
2018-09-29T22:28:20.138Z,52.45
2018-09-29T22:30:46.084Z,52.53
2018-09-29T22:33:12.037Z,52.00
2018-09-29T22:35:38.016Z,52.01
2018-09-29T22:38:03.992Z,52.04
2018-09-29T22:40:30.038Z,51.98
2018-09-29T22:42:56.001Z,52.51
2018-09-29T22:45:22.357Z,52.33
2018-09-29T22:47:48.371Z,51.75
2018-09-29T22:50:14.375Z,52.29
2018-09-29T22:52:40.343Z,52.21
2018-09-29T22:55:06.288Z,51.86
2018-09-29T22:57:32.345Z,51.54
2018-09-29T22:59:58.255Z,52.35
2018-09-29T23:02:24.246Z,52.47
2018-09-29T23:04:50.231Z,51.44
2018-09-29T23:07:16.229Z,52.44
2018-09-29T23:09:42.181Z,51.76
2018-09-29T23:12:08.140Z,51.58
2018-09-29T23:14:34.085Z,51.89
2018-09-29T23:17:00.380Z,51.91
2018-09-29T23:19:26.343Z,51.74
2018-09-29T23:21:52.309Z,51.93
2018-09-29T23:24:18.313Z,52.23
2018-09-29T23:26:44.268Z,52.01
2018-09-29T23:29:10.388Z,51.27
2018-09-29T23:31:36.377Z,51.88
2018-09-29T23:34:02.323Z,51.32
2018-09-29T23:36:28.314Z,51.80
2018-09-29T23:38:54.279Z,51.59
2018-09-29T23:41:20.240Z,51.71
2018-09-29T23:43:46.181Z,51.24
2018-09-29T23:46:12.265Z,51.89
2018-09-29T23:48:38.248Z,51.89
2018-09-29T23:51:04.198Z,51.59
2018-09-29T23:53:30.406Z,51.51
2018-09-29T23:55:56.352Z,51.79
2018-09-29T23:58:22.363Z,51.55
